TimeCDT,TemperatureF,Dew PointF,Humidity,Sea Level PressureIn,VisibilityMPH,Wind Direction,Wind SpeedMPH,Gust SpeedMPH,PrecipitationIn,Events,Conditions,WindDirDegrees,DateUTC
12:53 AM,73.9,66.9,79,30.04,10.0,SE,4.6,-,N/A,,Clear,140,2013-08-24 05:53:00
1:53 AM,73.9,68.0,82,30.04,10.0,SE,5.8,-,N/A,,Clear,140,2013-08-24 06:53:00
2:53 AM,73.0,68.0,84,30.04,10.0,SSE,5.8,-,N/A,,Clear,160,2013-08-24 07:53:00
3:53 AM,72.0,68.0,87,30.05,9.0,SSE,5.8,-,N/A,,Clear,150,2013-08-24 08:53:00
4:53 AM,71.1,68.0,90,30.06,8.0,SSE,6.9,-,N/A,,Clear,150,2013-08-24 09:53:00
5:53 AM,70.0,66.9,90,30.07,7.0,SSE,5.8,-,N/A,,Clear,160,2013-08-24 10:53:00
6:53 AM,70.0,68.0,93,30.08,6.0,SSE,5.8,-,N/A,,Clear,150,2013-08-24 11:53:00
7:53 AM,72.0,69.1,91,30.11,6.0,SSE,6.9,-,N/A,,Clear,160,2013-08-24 12:53:00
8:53 AM,75.9,70.0,82,30.12,8.0,South,10.4,-,N/A,,Clear,170,2013-08-24 13:53:00
9:53 AM,81.0,71.1,72,30.11,8.0,South,9.2,-,N/A,,Clear,180,2013-08-24 14:53:00
10:53 AM,82.9,71.1,67,30.12,9.0,SSE,12.7,-,N/A,,Clear,160,2013-08-24 15:53:00
11:53 AM,86.0,71.1,61,30.12,10.0,South,12.7,-,N/A,,Clear,170,2013-08-24 16:53:00
12:53 PM,86.0,70.0,59,30.12,10.0,SSW,11.5,17.3,N/A,,Scattered Clouds,210,2013-08-24 17:53:00
1:53 PM,89.1,70.0,53,30.10,10.0,South,6.9,-,N/A,,Partly Cloudy,190,2013-08-24 18:53:00
2:53 PM,89.1,69.1,52,30.09,10.0,SSE,10.4,-,N/A,,Scattered Clouds,160,2013-08-24 19:53:00
3:53 PM,89.1,68.0,50,30.08,10.0,South,10.4,-,N/A,,Partly Cloudy,190,2013-08-24 20:53:00
4:53 PM,89.1,69.1,52,30.08,10.0,SSE,11.5,-,N/A,,Scattered Clouds,160,2013-08-24 21:53:00
5:53 PM,87.1,69.1,55,30.07,10.0,South,13.8,-,N/A,,Clear,170,2013-08-24 22:53:00
6:53 PM,84.9,68.0,57,30.06,10.0,SSE,9.2,-,N/A,,Clear,160,2013-08-24 23:53:00
7:53 PM,82.0,69.1,65,30.06,10.0,SSE,6.9,-,N/A,,Clear,160,2013-08-25 00:53:00
8:53 PM,80.1,70.0,71,30.08,10.0,SE,5.8,-,N/A,,Clear,140,2013-08-25 01:53:00
9:53 PM,78.1,69.1,74,30.10,9.0,SSE,6.9,-,N/A,,Clear,150,2013-08-25 02:53:00
10:53 PM,77.0,69.1,76,30.10,8.0,SSE,8.1,-,N/A,,Clear,150,2013-08-25 03:53:00
11:53 PM,77.0,68.0,74,30.10,8.0,SSE,9.2,-,N/A,,Clear,150,2013-08-25 04:53:00